sensor_id;sensor_type;location;lat;lon;timestamp;P1;durP1;ratioP1;P2;durP2;ratioP2
60354;SDS011;46198;51.464;-0.066;2023-07-20T00:00:11;2.10;;;1.50;;
60354;SDS011;46198;51.464;-0.066;2023-07-20T00:02:40;5.30;;;1.65;;
60354;SDS011;46198;51.464;-0.066;2023-07-20T00:05:08;2.53;;;1.30;;
60354;SDS011;46198;51.464;-0.066;2023-07-20T00:07:36;2.38;;;1.23;;
60354;SDS011;46198;51.464;-0.066;2023-07-20T00:10:07;3.13;;;1.80;;
60354;SDS011;46198;51.464;-0.066;2023-07-20T00:12:38;1.63;;;1.23;;
60354;SDS011;46198;51.464;-0.066;2023-07-20T00:15:07;2.53;;;1.35;;
60354;SDS011;46198;51.464;-0.066;2023-07-20T00:17:37;3.47;;;1.50;;
60354;SDS011;46198;51.464;-0.066;2023-07-20T00:22:35;1.25;;;1.13;;
60354;SDS011;46198;51.464;-0.066;2023-07-20T00:25:03;1.98;;;1.45;;
60354;SDS011;46198;51.464;-0.066;2023-07-20T00:27:32;2.47;;;1.75;;
60354;SDS011;46198;51.464;-0.066;2023-07-20T00:30:00;2.85;;;1.50;;
60354;SDS011;46198;51.464;-0.066;2023-07-20T00:32:30;1.67;;;1.48;;
60354;SDS011;46198;51.464;-0.066;2023-07-20T00:35:00;4.57;;;1.52;;
60354;SDS011;46198;51.464;-0.066;2023-07-20T00:37:28;1.52;;;1.42;;
60354;SDS011;46198;51.464;-0.066;2023-07-20T00:39:58;2.08;;;1.40;;
60354;SDS011;46198;51.464;-0.066;2023-07-20T00:42:26;2.38;;;1.42;;
60354;SDS011;46198;51.464;-0.066;2023-07-20T00:44:55;1.60;;;1.35;;
60354;SDS011;46198;51.464;-0.066;2023-07-20T00:47:23;1.65;;;1.30;;
60354;SDS011;46198;51.464;-0.066;2023-07-20T00:49:52;1.80;;;1.60;;
60354;SDS011;46198;51.464;-0.066;2023-07-20T00:52:21;2.75;;;1.50;;
60354;SDS011;46198;51.464;-0.066;2023-07-20T00:54:51;2.22;;;1.92;;
60354;SDS011;46198;51.464;-0.066;2023-07-20T00:57:23;3.10;;;1.90;;
60354;SDS011;46198;51.464;-0.066;2023-07-20T00:59:53;2.00;;;1.38;;
60354;SDS011;46198;51.464;-0.066;2023-07-20T01:02:23;3.55;;;1.70;;
60354;SDS011;46198;51.464;-0.066;2023-07-20T01:04:51;2.03;;;1.35;;
60354;SDS011;46198;51.464;-0.066;2023-07-20T01:07:23;2.00;;;1.35;;
60354;SDS011;46198;51.464;-0.066;2023-07-20T01:09:57;5.65;;;1.80;;
60354;SDS011;46198;51.464;-0.066;2023-07-20T01:12:31;1.63;;;1.50;;
60354;SDS011;46198;51.464;-0.066;2023-07-20T01:15:05;2.10;;;1.50;;
60354;SDS011;46198;51.464;-0.066;2023-07-20T01:17:34;2.13;;;1.35;;
60354;SDS011;46198;51.464;-0.066;2023-07-20T01:20:03;2.88;;;1.85;;
60354;SDS011;46198;51.464;-0.066;2023-07-20T01:25:33;1.77;;;1.58;;
60354;SDS011;46198;51.464;-0.066;2023-07-20T01:28:18;2.03;;;1.58;;
60354;SDS011;46198;51.464;-0.066;2023-07-20T01:31:23;4.60;;;1.92;;
60354;SDS011;46198;51.464;-0.066;2023-07-20T01:33:54;3.33;;;1.85;;
60354;SDS011;46198;51.464;-0.066;2023-07-20T01:36:24;2.38;;;1.92;;
60354;SDS011;46198;51.464;-0.066;2023-07-20T01:38:56;1.73;;;1.48;;
60354;SDS011;46198;51.464;-0.066;2023-07-20T01:41:24;1.67;;;1.42;;
60354;SDS011;46198;51.464;-0.066;2023-07-20T01:43:52;2.80;;;1.65;;
60354;SDS011;46198;51.464;-0.066;2023-07-20T01:46:22;2.95;;;1.88;;
60354;SDS011;46198;51.464;-0.066;2023-07-20T01:48:51;2.05;;;1.60;;
60354;SDS011;46198;51.464;-0.066;2023-07-20T01:51:19;2.17;;;1.90;;
60354;SDS011;46198;51.464;-0.066;2023-07-20T01:53:48;2.45;;;1.70;;
60354;SDS011;46198;51.464;-0.066;2023-07-20T01:56:16;2.53;;;1.55;;
60354;SDS011;46198;51.464;-0.066;2023-07-20T01:58:44;2.17;;;1.60;;
60354;SDS011;46198;51.464;-0.066;2023-07-20T02:01:13;2.00;;;1.40;;
60354;SDS011;46198;51.464;-0.066;2023-07-20T02:03:42;5.57;;;1.77;;
60354;SDS011;46198;51.464;-0.066;2023-07-20T02:06:10;2.17;;;1.50;;
60354;SDS011;46198;51.464;-0.066;2023-07-20T02:08:39;3.08;;;1.80;;
60354;SDS011;46198;51.464;-0.066;2023-07-20T02:11:07;2.65;;;1.30;;
60354;SDS011;46198;51.464;-0.066;2023-07-20T02:13:36;2.83;;;1.33;;
60354;SDS011;46198;51.464;-0.066;2023-07-20T02:16:04;2.42;;;1.60;;
60354;SDS011;46198;51.464;-0.066;2023-07-20T02:18:33;1.83;;;1.50;;
60354;SDS011;46198;51.464;-0.066;2023-07-20T02:21:04;1.92;;;1.40;;
60354;SDS011;46198;51.464;-0.066;2023-07-20T02:23:32;2.70;;;1.80;;
60354;SDS011;46198;51.464;-0.066;2023-07-20T02:26:01;2.28;;;1.27;;
60354;SDS011;46198;51.464;-0.066;2023-07-20T02:28:29;1.38;;;1.27;;
60354;SDS011;46198;51.464;-0.066;2023-07-20T02:30:57;1.33;;;1.23;;
60354;SDS011;46198;51.464;-0.066;2023-07-20T02:33:25;1.90;;;1.50;;
60354;SDS011;46198;51.464;-0.066;2023-07-20T02:35:54;1.90;;;1.40;;
60354;SDS011;46198;51.464;-0.066;2023-07-20T02:41:42;1.80;;;1.42;;
60354;SDS011;46198;51.464;-0.066;2023-07-20T02:44:10;3.30;;;1.58;;
60354;SDS011;46198;51.464;-0.066;2023-07-20T02:46:38;1.60;;;1.30;;
60354;SDS011;46198;51.464;-0.066;2023-07-20T02:49:06;2.38;;;1.70;;
60354;SDS011;46198;51.464;-0.066;2023-07-20T02:51:34;3.95;;;1.90;;
60354;SDS011;46198;51.464;-0.066;2023-07-20T02:54:03;2.10;;;1.55;;
60354;SDS011;46198;51.464;-0.066;2023-07-20T02:56:31;1.75;;;1.50;;
60354;SDS011;46198;51.464;-0.066;2023-07-20T02:59:00;1.90;;;1.50;;
60354;SDS011;46198;51.464;-0.066;2023-07-20T03:01:29;2.15;;;1.65;;
60354;SDS011;46198;51.464;-0.066;2023-07-20T03:03:57;3.10;;;1.80;;
60354;SDS011;46198;51.464;-0.066;2023-07-20T03:06:25;2.50;;;2.10;;
60354;SDS011;46198;51.464;-0.066;2023-07-20T03:08:54;2.85;;;1.55;;
60354;SDS011;46198;51.464;-0.066;2023-07-20T03:11:22;1.83;;;1.65;;
60354;SDS011;46198;51.464;-0.066;2023-07-20T03:13:51;1.77;;;1.60;;
60354;SDS011;46198;51.464;-0.066;2023-07-20T03:16:21;2.90;;;1.90;;
60354;SDS011;46198;51.464;-0.066;2023-07-20T03:18:52;1.90;;;1.70;;
60354;SDS011;46198;51.464;-0.066;2023-07-20T03:21:24;3.00;;;1.52;;
60354;SDS011;46198;51.464;-0.066;2023-07-20T03:23:53;2.38;;;1.67;;
60354;SDS011;46198;51.464;-0.066;2023-07-20T03:26:22;2.25;;;1.70;;
60354;SDS011;46198;51.464;-0.066;2023-07-20T03:28:51;2.33;;;1.55;;
60354;SDS011;46198;51.464;-0.066;2023-07-20T03:31:22;4.53;;;2.00;;
60354;SDS011;46198;51.464;-0.066;2023-07-20T03:33:50;2.10;;;1.50;;
60354;SDS011;46198;51.464;-0.066;2023-07-20T03:36:19;2.22;;;1.83;;
60354;SDS011;46198;51.464;-0.066;2023-07-20T03:38:49;2.75;;;1.73;;
60354;SDS011;46198;51.464;-0.066;2023-07-20T03:41:17;1.70;;;1.60;;
60354;SDS011;46198;51.464;-0.066;2023-07-20T03:43:46;3.08;;;1.83;;
60354;SDS011;46198;51.464;-0.066;2023-07-20T03:46:15;2.00;;;1.70;;
60354;SDS011;46198;51.464;-0.066;2023-07-20T03:48:45;2.20;;;1.70;;
60354;SDS011;46198;51.464;-0.066;2023-07-20T03:51:13;2.55;;;1.85;;
60354;SDS011;46198;51.464;-0.066;2023-07-20T03:53:41;2.38;;;1.40;;
60354;SDS011;46198;51.464;-0.066;2023-07-20T03:56:10;2.63;;;1.98;;
60354;SDS011;46198;51.464;-0.066;2023-07-20T03:58:38;4.22;;;1.70;;
60354;SDS011;46198;51.464;-0.066;2023-07-20T04:01:06;3.38;;;1.50;;
60354;SDS011;46198;51.464;-0.066;2023-07-20T04:03:34;1.58;;;1.48;;
60354;SDS011;46198;51.464;-0.066;2023-07-20T04:06:05;3.08;;;1.90;;
60354;SDS011;46198;51.464;-0.066;2023-07-20T04:08:35;3.25;;;2.72;;
60354;SDS011;46198;51.464;-0.066;2023-07-20T04:11:03;3.28;;;1.75;;
60354;SDS011;46198;51.464;-0.066;2023-07-20T04:13:31;2.17;;;2.00;;
60354;SDS011;46198;51.464;-0.066;2023-07-20T04:16:01;3.83;;;1.92;;
60354;SDS011;46198;51.464;-0.066;2023-07-20T04:18:29;5.32;;;1.90;;
60354;SDS011;46198;51.464;-0.066;2023-07-20T04:20:57;4.32;;;2.00;;
60354;SDS011;46198;51.464;-0.066;2023-07-20T04:23:27;1.70;;;1.60;;
60354;SDS011;46198;51.464;-0.066;2023-07-20T04:25:56;3.25;;;1.85;;
60354;SDS011;46198;51.464;-0.066;2023-07-20T04:28:24;2.40;;;1.90;;
60354;SDS011;46198;51.464;-0.066;2023-07-20T04:30:52;2.67;;;2.05;;
60354;SDS011;46198;51.464;-0.066;2023-07-20T04:33:21;3.28;;;2.08;;
60354;SDS011;46198;51.464;-0.066;2023-07-20T04:35:50;4.20;;;2.40;;
60354;SDS011;46198;51.464;-0.066;2023-07-20T04:38:28;2.90;;;1.80;;
60354;SDS011;46198;51.464;-0.066;2023-07-20T04:41:12;3.67;;;1.88;;
60354;SDS011;46198;51.464;-0.066;2023-07-20T04:43:44;3.67;;;1.98;;
60354;SDS011;46198;51.464;-0.066;2023-07-20T04:46:17;2.50;;;2.00;;
60354;SDS011;46198;51.464;-0.066;2023-07-20T04:48:46;3.47;;;2.30;;
60354;SDS011;46198;51.464;-0.066;2023-07-20T04:51:15;4.82;;;2.00;;
60354;SDS011;46198;51.464;-0.066;2023-07-20T04:53:50;4.03;;;2.20;;
60354;SDS011;46198;51.464;-0.066;2023-07-20T04:56:18;2.55;;;1.70;;
60354;SDS011;46198;51.464;-0.066;2023-07-20T04:58:51;2.95;;;1.90;;
60354;SDS011;46198;51.464;-0.066;2023-07-20T05:01:19;3.28;;;2.17;;
60354;SDS011;46198;51.464;-0.066;2023-07-20T05:03:47;4.38;;;2.10;;
60354;SDS011;46198;51.464;-0.066;2023-07-20T05:06:17;3.13;;;2.28;;
60354;SDS011;46198;51.464;-0.066;2023-07-20T05:08:45;3.47;;;1.80;;
60354;SDS011;46198;51.464;-0.066;2023-07-20T05:11:16;4.05;;;2.30;;
60354;SDS011;46198;51.464;-0.066;2023-07-20T05:13:44;2.25;;;1.90;;
60354;SDS011;46198;51.464;-0.066;2023-07-20T05:16:12;4.35;;;2.30;;
60354;SDS011;46198;51.464;-0.066;2023-07-20T05:18:41;1.88;;;1.77;;
60354;SDS011;46198;51.464;-0.066;2023-07-20T05:21:10;2.22;;;2.03;;
60354;SDS011;46198;51.464;-0.066;2023-07-20T05:23:38;4.40;;;1.90;;
60354;SDS011;46198;51.464;-0.066;2023-07-20T05:26:06;3.00;;;1.95;;
60354;SDS011;46198;51.464;-0.066;2023-07-20T05:28:37;2.83;;;2.10;;
60354;SDS011;46198;51.464;-0.066;2023-07-20T05:31:05;3.17;;;2.13;;
60354;SDS011;46198;51.464;-0.066;2023-07-20T05:33:34;2.72;;;2.03;;
60354;SDS011;46198;51.464;-0.066;2023-07-20T05:36:03;4.07;;;2.58;;
60354;SDS011;46198;51.464;-0.066;2023-07-20T05:38:35;5.65;;;2.75;;
60354;SDS011;46198;51.464;-0.066;2023-07-20T05:41:03;2.75;;;2.35;;
60354;SDS011;46198;51.464;-0.066;2023-07-20T05:43:31;2.88;;;2.17;;
60354;SDS011;46198;51.464;-0.066;2023-07-20T05:46:00;2.58;;;2.05;;
60354;SDS011;46198;51.464;-0.066;2023-07-20T05:48:29;2.60;;;2.10;;
60354;SDS011;46198;51.464;-0.066;2023-07-20T05:50:57;4.05;;;2.00;;
60354;SDS011;46198;51.464;-0.066;2023-07-20T05:53:25;2.97;;;2.15;;
60354;SDS011;46198;51.464;-0.066;2023-07-20T05:55:53;3.55;;;2.42;;
60354;SDS011;46198;51.464;-0.066;2023-07-20T05:58:22;3.55;;;2.05;;
60354;SDS011;46198;51.464;-0.066;2023-07-20T06:00:51;2.72;;;2.20;;
60354;SDS011;46198;51.464;-0.066;2023-07-20T06:03:20;3.58;;;2.15;;
60354;SDS011;46198;51.464;-0.066;2023-07-20T06:05:49;3.70;;;2.50;;
60354;SDS011;46198;51.464;-0.066;2023-07-20T06:08:17;3.50;;;2.38;;
60354;SDS011;46198;51.464;-0.066;2023-07-20T06:10:49;5.38;;;2.10;;
60354;SDS011;46198;51.464;-0.066;2023-07-20T06:13:18;2.05;;;1.88;;
60354;SDS011;46198;51.464;-0.066;2023-07-20T06:15:46;3.28;;;2.08;;
60354;SDS011;46198;51.464;-0.066;2023-07-20T06:18:14;2.35;;;2.10;;
60354;SDS011;46198;51.464;-0.066;2023-07-20T06:20:44;4.22;;;2.08;;
60354;SDS011;46198;51.464;-0.066;2023-07-20T06:23:16;4.13;;;2.25;;
60354;SDS011;46198;51.464;-0.066;2023-07-20T06:25:45;4.70;;;2.28;;
60354;SDS011;46198;51.464;-0.066;2023-07-20T06:28:13;5.18;;;2.50;;
60354;SDS011;46198;51.464;-0.066;2023-07-20T06:30:41;3.28;;;2.33;;
60354;SDS011;46198;51.464;-0.066;2023-07-20T06:33:09;4.70;;;2.13;;
60354;SDS011;46198;51.464;-0.066;2023-07-20T06:35:42;2.85;;;2.47;;
60354;SDS011;46198;51.464;-0.066;2023-07-20T06:38:13;4.57;;;2.30;;
60354;SDS011;46198;51.464;-0.066;2023-07-20T06:40:45;3.95;;;2.72;;
60354;SDS011;46198;51.464;-0.066;2023-07-20T06:43:13;4.93;;;2.72;;
60354;SDS011;46198;51.464;-0.066;2023-07-20T06:45:44;4.32;;;3.00;;
60354;SDS011;46198;51.464;-0.066;2023-07-20T06:48:18;3.47;;;2.42;;
60354;SDS011;46198;51.464;-0.066;2023-07-20T06:50:48;5.15;;;2.85;;
60354;SDS011;46198;51.464;-0.066;2023-07-20T06:53:16;3.15;;;2.60;;
60354;SDS011;46198;51.464;-0.066;2023-07-20T06:55:44;4.13;;;2.58;;
60354;SDS011;46198;51.464;-0.066;2023-07-20T06:58:17;5.05;;;2.60;;
60354;SDS011;46198;51.464;-0.066;2023-07-20T07:00:45;4.63;;;2.63;;
60354;SDS011;46198;51.464;-0.066;2023-07-20T07:03:14;7.20;;;3.35;;
60354;SDS011;46198;51.464;-0.066;2023-07-20T07:05:42;8.73;;;2.78;;
60354;SDS011;46198;51.464;-0.066;2023-07-20T07:08:18;3.67;;;2.67;;
60354;SDS011;46198;51.464;-0.066;2023-07-20T07:10:46;5.78;;;2.83;;
60354;SDS011;46198;51.464;-0.066;2023-07-20T07:13:14;4.78;;;2.63;;
60354;SDS011;46198;51.464;-0.066;2023-07-20T07:15:43;5.30;;;2.65;;
60354;SDS011;46198;51.464;-0.066;2023-07-20T07:18:12;3.60;;;2.20;;
60354;SDS011;46198;51.464;-0.066;2023-07-20T07:20:40;3.17;;;2.20;;
60354;SDS011;46198;51.464;-0.066;2023-07-20T07:23:08;2.30;;;2.00;;
60354;SDS011;46198;51.464;-0.066;2023-07-20T07:25:37;4.30;;;2.67;;
60354;SDS011;46198;51.464;-0.066;2023-07-20T07:28:06;5.22;;;2.97;;
60354;SDS011;46198;51.464;-0.066;2023-07-20T07:30:34;6.53;;;2.65;;
60354;SDS011;46198;51.464;-0.066;2023-07-20T07:33:02;5.70;;;2.33;;
60354;SDS011;46198;51.464;-0.066;2023-07-20T07:35:30;4.35;;;2.60;;
60354;SDS011;46198;51.464;-0.066;2023-07-20T07:37:58;4.00;;;2.55;;
60354;SDS011;46198;51.464;-0.066;2023-07-20T07:40:40;3.75;;;2.55;;
60354;SDS011;46198;51.464;-0.066;2023-07-20T07:43:09;3.15;;;2.45;;
60354;SDS011;46198;51.464;-0.066;2023-07-20T07:45:37;3.47;;;2.20;;
60354;SDS011;46198;51.464;-0.066;2023-07-20T07:48:06;4.10;;;2.45;;
60354;SDS011;46198;51.464;-0.066;2023-07-20T07:50:34;4.88;;;2.63;;
60354;SDS011;46198;51.464;-0.066;2023-07-20T07:53:02;3.67;;;2.83;;
60354;SDS011;46198;51.464;-0.066;2023-07-20T07:55:31;5.30;;;2.28;;
60354;SDS011;46198;51.464;-0.066;2023-07-20T07:58:00;4.20;;;2.97;;
60354;SDS011;46198;51.464;-0.066;2023-07-20T08:00:28;4.95;;;2.88;;
60354;SDS011;46198;51.464;-0.066;2023-07-20T08:02:56;3.72;;;2.45;;
60354;SDS011;46198;51.464;-0.066;2023-07-20T08:05:24;3.47;;;2.40;;
60354;SDS011;46198;51.464;-0.066;2023-07-20T08:07:53;4.78;;;2.30;;
60354;SDS011;46198;51.464;-0.066;2023-07-20T08:10:21;4.78;;;3.00;;
60354;SDS011;46198;51.464;-0.066;2023-07-20T08:12:49;3.45;;;2.58;;
60354;SDS011;46198;51.464;-0.066;2023-07-20T08:15:19;4.20;;;2.28;;
60354;SDS011;46198;51.464;-0.066;2023-07-20T08:17:47;4.95;;;2.60;;
60354;SDS011;46198;51.464;-0.066;2023-07-20T08:20:18;4.40;;;2.53;;
60354;SDS011;46198;51.464;-0.066;2023-07-20T08:22:50;3.65;;;2.40;;
60354;SDS011;46198;51.464;-0.066;2023-07-20T08:25:19;3.35;;;2.60;;
60354;SDS011;46198;51.464;-0.066;2023-07-20T08:27:47;6.15;;;2.40;;
60354;SDS011;46198;51.464;-0.066;2023-07-20T08:30:15;2.90;;;2.25;;
60354;SDS011;46198;51.464;-0.066;2023-07-20T08:32:45;4.75;;;3.08;;
60354;SDS011;46198;51.464;-0.066;2023-07-20T08:35:13;4.45;;;2.33;;
60354;SDS011;46198;51.464;-0.066;2023-07-20T08:37:42;7.00;;;2.20;;
60354;SDS011;46198;51.464;-0.066;2023-07-20T08:40:11;4.45;;;1.92;;
60354;SDS011;46198;51.464;-0.066;2023-07-20T08:42:41;4.57;;;2.30;;
60354;SDS011;46198;51.464;-0.066;2023-07-20T08:45:10;3.70;;;2.08;;
60354;SDS011;46198;51.464;-0.066;2023-07-20T08:47:41;4.80;;;2.13;;
60354;SDS011;46198;51.464;-0.066;2023-07-20T08:50:12;6.13;;;2.53;;
60354;SDS011;46198;51.464;-0.066;2023-07-20T08:52:42;5.95;;;2.40;;
60354;SDS011;46198;51.464;-0.066;2023-07-20T08:55:10;5.00;;;2.00;;
60354;SDS011;46198;51.464;-0.066;2023-07-20T08:57:38;6.63;;;2.20;;
60354;SDS011;46198;51.464;-0.066;2023-07-20T09:00:09;5.32;;;2.05;;
60354;SDS011;46198;51.464;-0.066;2023-07-20T09:02:40;2.97;;;2.00;;
60354;SDS011;46198;51.464;-0.066;2023-07-20T09:05:10;4.22;;;1.70;;
60354;SDS011;46198;51.464;-0.066;2023-07-20T09:10:10;3.33;;;2.40;;
60354;SDS011;46198;51.464;-0.066;2023-07-20T09:12:40;3.20;;;2.00;;
60354;SDS011;46198;51.464;-0.066;2023-07-20T09:15:09;4.60;;;1.80;;
60354;SDS011;46198;51.464;-0.066;2023-07-20T09:17:38;3.47;;;1.58;;
60354;SDS011;46198;51.464;-0.066;2023-07-20T09:20:07;2.45;;;1.63;;
60354;SDS011;46198;51.464;-0.066;2023-07-20T09:22:37;2.15;;;2.00;;
60354;SDS011;46198;51.464;-0.066;2023-07-20T09:25:09;5.68;;;2.42;;
60354;SDS011;46198;51.464;-0.066;2023-07-20T09:27:40;4.55;;;1.80;;
60354;SDS011;46198;51.464;-0.066;2023-07-20T09:30:10;3.00;;;1.70;;
60354;SDS011;46198;51.464;-0.066;2023-07-20T09:32:44;2.03;;;1.63;;
60354;SDS011;46198;51.464;-0.066;2023-07-20T09:35:17;2.58;;;1.45;;
60354;SDS011;46198;51.464;-0.066;2023-07-20T09:37:49;2.70;;;1.40;;
60354;SDS011;46198;51.464;-0.066;2023-07-20T09:40:41;3.13;;;1.25;;
60354;SDS011;46198;51.464;-0.066;2023-07-20T09:43:12;4.70;;;1.42;;
60354;SDS011;46198;51.464;-0.066;2023-07-20T09:45:46;3.83;;;1.80;;
60354;SDS011;46198;51.464;-0.066;2023-07-20T09:48:17;6.22;;;1.80;;
60354;SDS011;46198;51.464;-0.066;2023-07-20T09:50:51;3.63;;;1.52;;
60354;SDS011;46198;51.464;-0.066;2023-07-20T09:53:21;3.25;;;1.80;;
60354;SDS011;46198;51.464;-0.066;2023-07-20T09:55:54;2.13;;;1.90;;
60354;SDS011;46198;51.464;-0.066;2023-07-20T09:58:22;2.08;;;1.60;;
60354;SDS011;46198;51.464;-0.066;2023-07-20T10:00:51;2.80;;;1.45;;
60354;SDS011;46198;51.464;-0.066;2023-07-20T10:03:21;1.10;;;1.10;;
60354;SDS011;46198;51.464;-0.066;2023-07-20T10:05:52;1.33;;;1.23;;
60354;SDS011;46198;51.464;-0.066;2023-07-20T10:08:24;2.83;;;1.40;;
60354;SDS011;46198;51.464;-0.066;2023-07-20T10:10:58;6.32;;;1.70;;
60354;SDS011;46198;51.464;-0.066;2023-07-20T10:13:29;2.67;;;2.00;;
60354;SDS011;46198;51.464;-0.066;2023-07-20T10:15:59;2.13;;;1.40;;
60354;SDS011;46198;51.464;-0.066;2023-07-20T10:18:31;2.33;;;1.40;;
60354;SDS011;46198;51.464;-0.066;2023-07-20T10:21:06;2.75;;;1.30;;
60354;SDS011;46198;51.464;-0.066;2023-07-20T10:23:38;1.42;;;1.33;;
60354;SDS011;46198;51.464;-0.066;2023-07-20T10:26:08;1.23;;;0.85;;
60354;SDS011;46198;51.464;-0.066;2023-07-20T10:28:38;1.45;;;1.20;;
60354;SDS011;46198;51.464;-0.066;2023-07-20T10:31:07;1.33;;;1.00;;
60354;SDS011;46198;51.464;-0.066;2023-07-20T10:36:06;1.52;;;1.10;;
60354;SDS011;46198;51.464;-0.066;2023-07-20T10:38:40;3.08;;;1.30;;
60354;SDS011;46198;51.464;-0.066;2023-07-20T10:45:18;1.60;;;1.35;;
60354;SDS011;46198;51.464;-0.066;2023-07-20T10:47:46;5.20;;;1.20;;
60354;SDS011;46198;51.464;-0.066;2023-07-20T10:50:17;3.53;;;2.00;;
60354;SDS011;46198;51.464;-0.066;2023-07-20T10:53:03;1.70;;;1.60;;
60354;SDS011;46198;51.464;-0.066;2023-07-20T10:55:32;5.00;;;2.30;;
60354;SDS011;46198;51.464;-0.066;2023-07-20T10:58:08;2.92;;;1.50;;
60354;SDS011;46198;51.464;-0.066;2023-07-20T11:00:39;3.13;;;1.45;;
60354;SDS011;46198;51.464;-0.066;2023-07-20T11:03:27;3.75;;;1.55;;
60354;SDS011;46198;51.464;-0.066;2023-07-20T11:09:05;2.55;;;1.50;;
60354;SDS011;46198;51.464;-0.066;2023-07-20T11:11:38;2.85;;;1.55;;
60354;SDS011;46198;51.464;-0.066;2023-07-20T11:14:07;2.58;;;1.55;;
60354;SDS011;46198;51.464;-0.066;2023-07-20T11:16:40;1.48;;;1.35;;
60354;SDS011;46198;51.464;-0.066;2023-07-20T11:19:14;2.58;;;1.50;;
60354;SDS011;46198;51.464;-0.066;2023-07-20T11:21:49;2.97;;;1.52;;
60354;SDS011;46198;51.464;-0.066;2023-07-20T11:26:56;2.17;;;1.50;;
60354;SDS011;46198;51.464;-0.066;2023-07-20T11:29:24;4.28;;;1.80;;
60354;SDS011;46198;51.464;-0.066;2023-07-20T11:32:00;1.52;;;1.30;;
60354;SDS011;46198;51.464;-0.066;2023-07-20T11:34:32;1.58;;;1.48;;
60354;SDS011;46198;51.464;-0.066;2023-07-20T11:37:00;2.45;;;1.42;;
60354;SDS011;46198;51.464;-0.066;2023-07-20T11:39:33;1.77;;;1.10;;
60354;SDS011;46198;51.464;-0.066;2023-07-20T11:42:02;3.30;;;1.53;;
60354;SDS011;46198;51.464;-0.066;2023-07-20T11:44:31;3.35;;;1.70;;
60354;SDS011;46198;51.464;-0.066;2023-07-20T11:47:01;3.38;;;1.95;;
60354;SDS011;46198;51.464;-0.066;2023-07-20T11:49:34;2.05;;;1.83;;
60354;SDS011;46198;51.464;-0.066;2023-07-20T11:52:03;2.75;;;1.42;;
60354;SDS011;46198;51.464;-0.066;2023-07-20T11:54:32;1.80;;;1.70;;
60354;SDS011;46198;51.464;-0.066;2023-07-20T11:57:04;3.78;;;2.10;;
60354;SDS011;46198;51.464;-0.066;2023-07-20T11:59:33;1.70;;;1.60;;
60354;SDS011;46198;51.464;-0.066;2023-07-20T12:02:03;2.40;;;1.90;;
60354;SDS011;46198;51.464;-0.066;2023-07-20T12:07:00;2.67;;;2.13;;
60354;SDS011;46198;51.464;-0.066;2023-07-20T12:09:29;2.63;;;1.85;;
60354;SDS011;46198;51.464;-0.066;2023-07-20T12:12:15;2.85;;;1.73;;
60354;SDS011;46198;51.464;-0.066;2023-07-20T12:14:44;3.67;;;2.00;;
60354;SDS011;46198;51.464;-0.066;2023-07-20T12:17:15;2.20;;;1.98;;
60354;SDS011;46198;51.464;-0.066;2023-07-20T12:19:44;1.60;;;1.50;;
60354;SDS011;46198;51.464;-0.066;2023-07-20T12:22:15;2.75;;;1.83;;
60354;SDS011;46198;51.464;-0.066;2023-07-20T12:24:44;2.10;;;1.55;;
60354;SDS011;46198;51.464;-0.066;2023-07-20T12:27:13;2.30;;;1.90;;
60354;SDS011;46198;51.464;-0.066;2023-07-20T12:29:44;2.83;;;1.42;;
60354;SDS011;46198;51.464;-0.066;2023-07-20T12:32:15;1.70;;;1.60;;
60354;SDS011;46198;51.464;-0.066;2023-07-20T12:34:43;7.93;;;2.38;;
60354;SDS011;46198;51.464;-0.066;2023-07-20T12:37:11;1.45;;;1.27;;
60354;SDS011;46198;51.464;-0.066;2023-07-20T12:39:39;2.55;;;1.33;;
60354;SDS011;46198;51.464;-0.066;2023-07-20T12:42:07;1.73;;;1.35;;
60354;SDS011;46198;51.464;-0.066;2023-07-20T12:44:35;1.65;;;1.55;;
60354;SDS011;46198;51.464;-0.066;2023-07-20T12:47:06;3.67;;;1.77;;
60354;SDS011;46198;51.464;-0.066;2023-07-20T12:49:36;1.70;;;1.60;;
60354;SDS011;46198;51.464;-0.066;2023-07-20T12:52:04;3.30;;;1.65;;
60354;SDS011;46198;51.464;-0.066;2023-07-20T12:54:33;2.25;;;1.50;;
60354;SDS011;46198;51.464;-0.066;2023-07-20T12:57:01;2.15;;;1.88;;
60354;SDS011;46198;51.464;-0.066;2023-07-20T12:59:32;3.80;;;1.70;;
60354;SDS011;46198;51.464;-0.066;2023-07-20T13:02:00;1.88;;;1.52;;
60354;SDS011;46198;51.464;-0.066;2023-07-20T13:04:29;3.10;;;1.40;;
60354;SDS011;46198;51.464;-0.066;2023-07-20T13:06:59;1.88;;;1.60;;
60354;SDS011;46198;51.464;-0.066;2023-07-20T13:09:47;2.15;;;1.48;;
60354;SDS011;46198;51.464;-0.066;2023-07-20T13:12:15;2.22;;;1.67;;
60354;SDS011;46198;51.464;-0.066;2023-07-20T13:14:43;2.03;;;1.65;;
60354;SDS011;46198;51.464;-0.066;2023-07-20T13:17:11;2.42;;;1.67;;
60354;SDS011;46198;51.464;-0.066;2023-07-20T13:19:39;5.05;;;2.10;;
60354;SDS011;46198;51.464;-0.066;2023-07-20T13:22:09;3.53;;;1.52;;
60354;SDS011;46198;51.464;-0.066;2023-07-20T13:24:37;5.00;;;2.10;;
60354;SDS011;46198;51.464;-0.066;2023-07-20T13:27:06;2.08;;;1.75;;
60354;SDS011;46198;51.464;-0.066;2023-07-20T13:29:34;3.67;;;1.83;;
60354;SDS011;46198;51.464;-0.066;2023-07-20T13:32:02;8.07;;;3.42;;
60354;SDS011;46198;51.464;-0.066;2023-07-20T13:34:32;12.00;;;6.80;;
60354;SDS011;46198;51.464;-0.066;2023-07-20T13:37:00;23.83;;;4.28;;
60354;SDS011;46198;51.464;-0.066;2023-07-20T13:39:31;7.03;;;2.45;;
60354;SDS011;46198;51.464;-0.066;2023-07-20T13:41:59;2.40;;;1.58;;
60354;SDS011;46198;51.464;-0.066;2023-07-20T13:44:30;4.22;;;3.83;;
60354;SDS011;46198;51.464;-0.066;2023-07-20T13:46:59;4.43;;;2.95;;
60354;SDS011;46198;51.464;-0.066;2023-07-20T13:49:31;7.65;;;4.72;;
60354;SDS011;46198;51.464;-0.066;2023-07-20T13:52:11;4.55;;;2.50;;
60354;SDS011;46198;51.464;-0.066;2023-07-20T13:54:44;21.80;;;3.50;;
60354;SDS011;46198;51.464;-0.066;2023-07-20T13:57:17;15.45;;;8.85;;
60354;SDS011;46198;51.464;-0.066;2023-07-20T13:59:45;8.90;;;5.72;;
60354;SDS011;46198;51.464;-0.066;2023-07-20T14:02:13;4.40;;;2.63;;
60354;SDS011;46198;51.464;-0.066;2023-07-20T14:04:45;4.65;;;2.45;;
60354;SDS011;46198;51.464;-0.066;2023-07-20T14:07:15;4.90;;;2.72;;
60354;SDS011;46198;51.464;-0.066;2023-07-20T14:09:45;2.53;;;1.85;;
60354;SDS011;46198;51.464;-0.066;2023-07-20T14:12:16;4.07;;;2.60;;
60354;SDS011;46198;51.464;-0.066;2023-07-20T14:14:45;1.93;;;1.60;;
60354;SDS011;46198;51.464;-0.066;2023-07-20T14:17:20;4.30;;;1.80;;
60354;SDS011;46198;51.464;-0.066;2023-07-20T14:19:49;6.32;;;1.80;;
60354;SDS011;46198;51.464;-0.066;2023-07-20T14:22:19;17.88;;;2.92;;
60354;SDS011;46198;51.464;-0.066;2023-07-20T14:24:48;1.92;;;1.20;;
60354;SDS011;46198;51.464;-0.066;2023-07-20T14:30:11;2.08;;;1.88;;
60354;SDS011;46198;51.464;-0.066;2023-07-20T14:32:41;3.20;;;1.70;;
60354;SDS011;46198;51.464;-0.066;2023-07-20T14:35:09;1.80;;;1.60;;
60354;SDS011;46198;51.464;-0.066;2023-07-20T14:37:37;2.05;;;1.58;;
60354;SDS011;46198;51.464;-0.066;2023-07-20T14:40:07;3.35;;;1.35;;
60354;SDS011;46198;51.464;-0.066;2023-07-20T14:42:36;2.25;;;1.20;;
60354;SDS011;46198;51.464;-0.066;2023-07-20T14:49:31;3.38;;;1.38;;
60354;SDS011;46198;51.464;-0.066;2023-07-20T14:51:59;2.13;;;1.40;;
60354;SDS011;46198;51.464;-0.066;2023-07-20T14:54:27;2.25;;;1.30;;
60354;SDS011;46198;51.464;-0.066;2023-07-20T14:56:57;2.45;;;1.75;;
60354;SDS011;46198;51.464;-0.066;2023-07-20T14:59:30;3.25;;;1.50;;
60354;SDS011;46198;51.464;-0.066;2023-07-20T15:02:01;1.90;;;1.25;;
60354;SDS011;46198;51.464;-0.066;2023-07-20T15:04:29;1.80;;;1.17;;
60354;SDS011;46198;51.464;-0.066;2023-07-20T15:06:57;1.63;;;1.30;;
60354;SDS011;46198;51.464;-0.066;2023-07-20T15:09:26;3.15;;;1.30;;
60354;SDS011;46198;51.464;-0.066;2023-07-20T15:11:54;1.23;;;1.05;;
60354;SDS011;46198;51.464;-0.066;2023-07-20T15:14:23;1.45;;;1.35;;
60354;SDS011;46198;51.464;-0.066;2023-07-20T15:16:51;3.08;;;1.25;;
60354;SDS011;46198;51.464;-0.066;2023-07-20T15:19:19;3.75;;;1.45;;
60354;SDS011;46198;51.464;-0.066;2023-07-20T15:21:49;3.83;;;1.47;;